Database: COMPET-N - COOP - 3PL - 4PL - CNDOOM

WAD: Doom | Doom 2 | TNT | Plutonia | AV | HR | Scythe | MM | MM2 | Requiem | CE
Category: speed | nmare | max | nm100s | tyson | pacifist | fast | respawn | nomo | misc | built | all
Highscore: ALL | IWAD | PWAD | Country | Continent

< Previous player       Next player >

Jakub 'DooMerMan' Machata

Country: Czech republic (CZ) / Europe

Unique player ID: 37

Number of demos: 128

First demo: hr04-040.zip recorded on 2002-12-09

Last demo: hr21-026.zip recorded on 2003-10-04

Remove: wad | map | category | player | all
MapPlayerTimeDateFilenameCommentsDL
Final Doom, TNT: Evilution - Ultra Violence Speed
MAP30: Last CallJakub Machata1:26.002003-07-26ev30-126.zip - 129
MAP30: Last CallJakub Machata1:27.002003-07-21ev30-127.zip - 107
Final Doom, TNT: Evilution - Ultra Violence Respawn
MAP17: Processing AreaJakub Machata2:36.002003-07-05er17-236.zip - 172
Alien Vendetta - Ultra Violence Speed
MAP03: Cargo DepotJakub Machata1:29.002003-06-30av03-129.zip - 72
MAP03: Cargo DepotJakub Machata1:31.002003-05-02av03-131.zip - 86
MAP03: Cargo DepotJakub Machata1:39.002003-03-20av03-139.zip - 66
MAP03: Cargo DepotJakub Machata1:41.002003-02-02av03-141.zip - 75
MAP03: Cargo DepotJakub Machata1:43.002003-02-01av03-143.zip - 79
MAP03: Cargo DepotJakub Machata1:47.002003-01-24av03-147.zip - 62
MAP03: Cargo DepotJakub Machata1:59.002003-01-13av03-159.zip - 71
MAP03: Cargo DepotJakub Machata2:14.002002-12-30av03-214.zip - 45
MAP04: SeclusionJakub Machata1:43.002003-06-30av04-143.zip - 86
MAP04: SeclusionJakub Machata1:49.002003-04-08av04-149.zip - 85
MAP04: SeclusionJakub Machata1:54.002003-04-05av04-154.zip - 85
MAP04: SeclusionJakub Machata1:56.002003-01-24av04-156.zip - 68
MAP04: SeclusionJakub Machata2:04.002003-01-13av04-204.zip - 74
MAP04: SeclusionJakub Machata2:21.002003-01-12av04-221.zip - 70
MAP16: Mutual DestructionJakub Machata5:22.002003-07-02av16-522.zip - 47
MAP16: Mutual DestructionJakub Machata5:31.002003-06-30av16-531.zip - 51
MAP30: Point DreadfulJakub Machata59.002003-08-13av30-059.zip - 53
MAP30: Point DreadfulJakub Machata1:00.002003-08-10av30-100.zip - 63
MAP30: Point DreadfulJakub Machata1:01.002003-08-10av30-101.zip - 51
Alien Vendetta - Nightmare Speed
MAP30: Point DreadfulJakub Machata59.002003-08-10an30-059.zip - 176
Alien Vendetta - Ultra Violence Max
MAP02: Rusty RageJakub Machata2:43.002003-01-24av02-243.zip - 84
MAP02: Rusty RageJakub Machata2:44.002003-01-24av02-244.zip - 81
MAP03: Cargo DepotJakub Machata3:22.002003-02-01av03-322.zip - 67
MAP03: Cargo DepotJakub Machata3:38.002003-01-24av03-338.zip - 71
MAP03: Cargo DepotJakub Machata3:55.002003-01-12av03-355.zip - 87
MAP04: SeclusionJakub Machata5:34.002003-01-12av04-534.zip - 77
MAP30: Point DreadfulJakub Machata59.002003-08-13av30-059.zip - 52
MAP30: Point DreadfulJakub Machata1:00.002003-08-10av30-100.zip - 62
MAP30: Point DreadfulJakub Machata1:01.002003-08-10av30-101.zip - 64
MAP30: Point DreadfulJakub Machata1:02.002003-07-26av30-102.zip - 60
Alien Vendetta - Ultra Violence Tyson
MAP04: SeclusionJakub Machata13:33.002003-06-29at041333.zip - 85
MAP04: SeclusionJakub Machata17:00.002003-05-02at041700.zip - 88
Alien Vendetta - Ultra Violence Fast
MAP03: Cargo DepotJakub Machata4:42.002003-05-01af03-442.zip - 69
MAP03: Cargo DepotJakub Machata4:51.002003-02-03af03-451.zip - 67
MAP04: SeclusionJakub Machata5:47.002003-03-08af04-547.zip - 65
MAP04: SeclusionJakub Machata6:23.002003-02-28af04-623.zip - 79
MAP04: SeclusionJakub Machata7:44.002003-02-03af04-744.zip - 71
Alien Vendetta - Ultra Violence Respawn
MAP03: Cargo DepotJakub Machata2:32.002003-07-01ar03-232.zip - 171
MAP03: Cargo DepotJakub Machata2:44.002003-04-26ar03-244.zip - 83
MAP03: Cargo DepotJakub Machata2:49.002003-04-14ar03-249.zip - 82
MAP03: Cargo DepotJakub Machata3:28.002003-04-07ar03-328.zip - 84
MAP04: SeclusionJakub Machata3:44.002003-04-26ar04-344.zip - 172
MAP04: SeclusionJakub Machata3:50.002003-04-14ar04-350.zip - 84
MAP04: SeclusionJakub Machata5:06.002003-04-06ar04-506.zip - 104
Hell Revealed - Ultra Violence Speed
MAP02: Gateway LabJakub Machata42.002003-08-31hr02-042.zip - 79
MAP02: Gateway LabJakub Machata46.002003-03-29hr02-046.zip - 115
MAP02: Gateway LabJakub Machata48.002003-02-21hr02-048.zip - 100
MAP02: Gateway LabJakub Machata55.002003-02-18hr02-055.zip - 95
MAP02: Gateway LabJakub Machata1:15.002003-01-19hr02-115.zip - 90
MAP02: Gateway LabJakub Machata1:24.002003-01-18hr02-124.zip - 82
MAP02: Gateway LabJakub Machata1:37.002003-01-09hr02-137.zip - 90
MAP03: The DumpsterJakub Machata1:10.002003-03-16hr03-110.zip - 106
MAP03: The DumpsterJakub Machata1:15.002003-03-16hr03-115.zip - 106
MAP04: The Garden TerminalJakub Machata36.002003-03-29hr04-036.zip - 195
MAP04: The Garden TerminalJakub Machata37.002003-01-10hr04-037.zip - 120
MAP04: The Garden TerminalJakub Machata38.002003-01-05hr04-038.zip - 115
MAP04: The Garden TerminalJakub Machata39.002002-12-13hr04-039.zip - 119
MAP04: The Garden TerminalJakub Machata40.002002-12-09hr04-040.zip - 319
MAP05: Core InfectionJakub Machata2:12.002003-07-25hr05-212.zip - 179
MAP05: Core InfectionJakub Machata2:20.002003-01-25hr05-220.zip - 82
MAP05: Core InfectionJakub Machata2:45.002003-01-24hr05-245.zip - 80
MAP05: Core InfectionJakub Machata2:51.002003-01-11hr05-251.zip - 87
MAP06: The Round CrossroadsJakub Machata1:12.002003-06-25hr06-112.zip - 172
MAP06: The Round CrossroadsJakub Machata1:15.002003-05-03hr06-115.zip - 84
MAP06: The Round CrossroadsJakub Machata1:19.002003-04-12hr06-119.zip - 79
MAP06: The Round CrossroadsJakub Machata1:22.002003-03-10hr06-122.zip - 63
MAP06: The Round CrossroadsJakub Machata1:35.002003-01-15hr06-135.zip - 87
MAP07: ArachnophobiaJakub Machata4:08.002003-07-04hr07-408.zip - 164
MAP07: ArachnophobiaJakub Machata4:10.002003-03-29hr07-410.zip - 68
MAP07: ArachnophobiaJakub Machata4:12.002003-01-16hr07-412.zip - 67
MAP08: The JailJakub Machata34.002003-09-28hr08-034.zip - 66
MAP08: The JailJakub Machata37.002003-03-09hr08-037.zip - 70
MAP08: The JailJakub Machata38.002002-12-26hr08-038.zip - 74
MAP08: The JailJakub Machata39.002002-12-26hr08-039.zip - 49
MAP08: The JailJakub Machata40.002002-12-25hr08-040.zip - 64
MAP08: The JailJakub Machata45.002002-12-10hr08-045.zip - 61
MAP08: The JailJakub Machata47.002002-12-10hr08-047.zip - 79
MAP09: KnockoutJakub Machata1:01.002003-08-31hr09-101.zip - 178
MAP09: KnockoutJakub Machata1:47.002003-01-16hr09-147.zip - 81
MAP10: Chambers of WarJakub Machata36.002003-09-29hr10-036.zip - 156
MAP10: Chambers of WarJakub Machata37.002003-07-11hr10-037.zip - 82
MAP15S: Gates to Hell Secret ExitJakub Machata45.002003-09-02hr15s045.zip - 140
MAP15S: Gates to Hell Secret ExitJakub Machata49.002003-09-01hr15s049.zip - 60
MAP21: SiegeJakub Machata26.002003-10-04hr21-026.zip - 252
MAP21: SiegeJakub Machata28.002003-01-06hr21-028.zip - 66
MAP24: Post MortemJakub Machata19.002003-10-03hr24-019.zip - 83
MAP31: The DescentJakub Machata2:19.002003-07-11hr31-219.zip - 59
Episode record's
EP1: HR Episode 1 (MAP01 - MAP10)Jakub Machata13:26.002003-03-291326hr01.zip - 161
EP1: HR Episode 1 (MAP01 - MAP10)Jakub Machata15:53.002003-03-161553hr01.zip - 61
EP1: HR Episode 1 (MAP01 - MAP10)Jakub Machata17:18.002003-01-211718hr01.zip - 51
EP1: HR Episode 1 (MAP01 - MAP10)Jakub Machata19:01.002003-01-111901hr01.zip - 51
EP1: HR Episode 1 (MAP01 - MAP10)Jakub Machata20:50.002003-01-112050hr01.zip - 50
Hell Revealed - Nightmare Speed
MAP03: The DumpsterJakub Machata1:58.002003-03-20hn03-158.zip - 95
MAP04: The Garden TerminalJakub Machata52.002003-03-20hn04-052.zip - 163
Hell Revealed - Ultra Violence Max
MAP02: Gateway LabJakub Machata2:16.002003-04-30hr02-216.zip - 100
MAP02: Gateway LabJakub Machata2:17.002003-04-26hr02-217.zip - 84
MAP02: Gateway LabJakub Machata2:24.002003-04-03hr02-224.zip - 80
MAP03: The DumpsterJakub Machata2:06.002003-04-29hr03-206.zip - 98
Hell Revealed - Ultra Violence Tyson
MAP03: The DumpsterJakub Machata5:21.002003-05-05ht03-521.zip - 182
MAP03: The DumpsterJakub Machata5:44.002003-04-29ht03-544.zip - 104
MAP04: The Garden TerminalJakub Machata7:02.002003-07-01ht04-702.zip - 197
MAP04: The Garden TerminalJakub Machata7:53.002003-05-01ht04-753.zip - 95
Hell Revealed - Ultra Violence Pacifist
MAP10: Chambers of WarJakub Machata38.002003-09-08hp10-038.zip - 170
MAP10: Chambers of WarJakub Machata41.002003-01-24hp10-041.zip - 80
Hell Revealed - Ultra Violence Fast
MAP02: Gateway LabJakub Machata2:37.002003-07-01hf02-237.zip - 172
MAP02: Gateway LabJakub Machata2:44.002003-03-30hf02-244.zip - 95
MAP03: The DumpsterJakub Machata2:38.002003-04-29hf03-238.zip - 74
MAP04: The Garden TerminalJakub Machata1:35.002003-03-20hf04-135.zip - 86
MAP07: ArachnophobiaJakub Machata5:08.002003-07-17hf07-508.zip - 161
Hell Revealed - Ultra Violence Respawn
MAP02: Gateway LabJakub Machata2:10.002003-07-12he02-210.zip - 222
MAP02: Gateway LabJakub Machata2:28.002003-04-03he02-228.zip - 109
MAP02: Gateway LabJakub Machata2:40.002003-02-19he02-240.zip - 91
MAP03: The DumpsterJakub Machata2:03.002003-04-29he03-203.zip - 197
MAP03: The DumpsterJakub Machata2:10.002003-04-14he03-210.zip - 91
MAP04: The Garden TerminalJakub Machata1:19.002003-04-17he04-119.zip - 202
MAP04: The Garden TerminalJakub Machata1:20.002003-04-03he04-120.zip - 98
MAP04: The Garden TerminalJakub Machata1:24.002003-03-21he04-124.zip - 101
MAP04: The Garden TerminalJakub Machata1:26.002003-03-20he04-126.zip - 95
MAP04: The Garden TerminalJakub Machata1:32.002003-01-10he04-132.zip - 81
Hell Revealed - Misc
Memento Mori - Nightmare Speed
MAP03: InterlockJakub Machata58.002003-02-23mm03n058.zip - 82
Memento Mori - Nightmare 100% Secrets
MAP03: InterlockJakub Machata1:02.002003-02-23mm03s102.zip - 82
Memento Mori - Ultra Violence Respawn
MAP03: InterlockJakub Machata1:03.002003-01-31mm03r103.zip - 169
MAP03: InterlockJakub Machata1:09.002003-01-30mm03r109.zip - 90
MAP03: InterlockJakub Machata1:19.002003-01-29mm03r119.zip - 98
Remove: wad | map | category | player | all